TGL26FF OBBI-OEJN
Flight info
| Callsign | TGL26FF |
|---|---|
| Flight time | 2h 5m |
| Altitude | 36000 |
| Route | BHR B457 NARMI N112 GETOT Q212 KSA G782 VEMEM |
| Aircraft | B38M/M-SDE1FGHILORVWXY/HB1 |
Departure
| Time | 2026-04-28 05:32 |
|---|---|
| Airport | Bahrain International Airport (OBBI) |
Arrival
| Time | 2026-04-28 07:37 |
|---|---|
| Airport | King Abdulaziz International Airport (OEJN) |
| Time | Latitude | Longitude | Altitude | Speed | Heading |
|---|---|---|---|---|---|
| 2026-04-28 04:55 | 26.26960 | 50.62781 | 19 ft | 0 kts | 214° |
| 2026-04-28 05:23 | 26.26977 | 50.62795 | 20 ft | 4 kts | 216° |
| 2026-04-28 05:23 | 26.26999 | 50.62814 | 21 ft | 4 kts | 221° |
| 2026-04-28 05:24 | 26.27018 | 50.62834 | 23 ft | 4 kts | 229° |
| 2026-04-28 05:24 | 26.27033 | 50.62859 | 21 ft | 4 kts | 253° |
| 2026-04-28 05:24 | 26.27033 | 50.62879 | 21 ft | 0 kts | 299° |
| 2026-04-28 05:27 | 26.27035 | 50.62874 | 21 ft | 2 kts | 299° |
| 2026-04-28 05:27 | 26.27050 | 50.62845 | 20 ft | 7 kts | 300° |
| 2026-04-28 05:27 | 26.27083 | 50.62785 | 20 ft | 11 kts | 301° |
| 2026-04-28 05:27 | 26.27134 | 50.62697 | 22 ft | 15 kts | 304° |
| 2026-04-28 05:28 | 26.27222 | 50.62644 | 20 ft | 16 kts | 14° |
| 2026-04-28 05:28 | 26.27320 | 50.62614 | 20 ft | 17 kts | 307° |
| 2026-04-28 05:28 | 26.27386 | 50.62499 | 20 ft | 19 kts | 303° |
| 2026-04-28 05:28 | 26.27460 | 50.62373 | 19 ft | 20 kts | 303° |
| 2026-04-28 05:29 | 26.27541 | 50.62234 | 21 ft | 22 kts | 303° |
| 2026-04-28 05:29 | 26.27624 | 50.62090 | 19 ft | 21 kts | 303° |
| 2026-04-28 05:29 | 26.27705 | 50.61950 | 19 ft | 21 kts | 303° |
| 2026-04-28 05:29 | 26.27787 | 50.61810 | 20 ft | 22 kts | 303° |
| 2026-04-28 05:30 | 26.27885 | 50.61671 | 20 ft | 23 kts | 332° |
| 2026-04-28 05:30 | 26.27973 | 50.61665 | 21 ft | 13 kts | 21° |
| 2026-04-28 05:30 | 26.28037 | 50.61712 | 22 ft | 11 kts | 40° |
| 2026-04-28 05:30 | 26.28039 | 50.61757 | 22 ft | 6 kts | 132° |
| 2026-04-28 05:31 | 26.28000 | 50.61790 | 21 ft | 8 kts | 137° |
| 2026-04-28 05:31 | 26.27938 | 50.61888 | 22 ft | 38 kts | 122° |
| 2026-04-28 05:31 | 26.27656 | 50.62379 | 19 ft | 110 kts | 122° |
| 2026-04-28 05:31 | 26.27154 | 50.63277 | 97 ft | 156 kts | 121° |
| 2026-04-28 05:32 | 26.26545 | 50.64376 | 525 ft | 175 kts | 120° |
| 2026-04-28 05:32 | 26.25857 | 50.65649 | 730 ft | 207 kts | 117° |
| 2026-04-28 05:32 | 26.25119 | 50.67022 | 1533 ft | 211 kts | 120° |
| 2026-04-28 05:32 | 26.24336 | 50.68510 | 2010 ft | 235 kts | 121° |
| 2026-04-28 05:33 | 26.23444 | 50.70125 | 2520 ft | 260 kts | 121° |
| 2026-04-28 05:33 | 26.22449 | 50.71900 | 3083 ft | 278 kts | 121° |
| 2026-04-28 05:33 | 26.21410 | 50.73759 | 3882 ft | 282 kts | 122° |
| 2026-04-28 05:33 | 26.20380 | 50.75593 | 5009 ft | 278 kts | 123° |
| 2026-04-28 05:34 | 26.19259 | 50.77384 | 5788 ft | 286 kts | 137° |
| 2026-04-28 05:34 | 26.17560 | 50.78425 | 6664 ft | 280 kts | 171° |
| 2026-04-28 05:34 | 26.15643 | 50.78309 | 7423 ft | 278 kts | 204° |
| 2026-04-28 05:34 | 26.14122 | 50.77064 | 8258 ft | 274 kts | 236° |
| 2026-04-28 05:35 | 26.13405 | 50.75122 | 9124 ft | 273 kts | 260° |
| 2026-04-28 05:35 | 26.13284 | 50.73007 | 9966 ft | 277 kts | 276° |
| 2026-04-28 05:35 | 26.13857 | 50.70932 | 10587 ft | 291 kts | 295° |
| 2026-04-28 05:35 | 26.14741 | 50.68824 | 10950 ft | 311 kts | 291° |
| 2026-04-28 05:36 | 26.15642 | 50.66557 | 11304 ft | 329 kts | 292° |
| 2026-04-28 05:36 | 26.16599 | 50.64189 | 11803 ft | 341 kts | 292° |
| 2026-04-28 05:36 | 26.17596 | 50.61781 | 12589 ft | 343 kts | 292° |
| 2026-04-28 05:36 | 26.18619 | 50.59359 | 13327 ft | 348 kts | 292° |
| 2026-04-28 05:37 | 26.19660 | 50.56910 | 14027 ft | 352 kts | 292° |
| 2026-04-28 05:37 | 26.20717 | 50.54443 | 14724 ft | 355 kts | 292° |
| 2026-04-28 05:37 | 26.21789 | 50.51952 | 15413 ft | 358 kts | 293° |
| 2026-04-28 05:37 | 26.22869 | 50.49441 | 16079 ft | 361 kts | 293° |
| 2026-04-28 05:38 | 26.23961 | 50.46909 | 16743 ft | 365 kts | 293° |
| 2026-04-28 05:38 | 26.25064 | 50.44351 | 17402 ft | 367 kts | 293° |
| 2026-04-28 05:38 | 26.26174 | 50.41775 | 18031 ft | 370 kts | 293° |
| 2026-04-28 05:38 | 26.27294 | 50.39175 | 18564 ft | 373 kts | 293° |
| 2026-04-28 05:39 | 26.28420 | 50.36562 | 19136 ft | 375 kts | 292° |
| 2026-04-28 05:39 | 26.29543 | 50.33941 | 19691 ft | 376 kts | 290° |
| 2026-04-28 05:39 | 26.30228 | 50.31156 | 20232 ft | 373 kts | 277° |
| 2026-04-28 05:39 | 26.30512 | 50.29263 | 20586 ft | 374 kts | 277° |
| 2026-04-28 05:40 | 26.31090 | 50.25425 | 21297 ft | 376 kts | 277° |
| 2026-04-28 05:40 | 26.31368 | 50.23517 | 21659 ft | 377 kts | 277° |
| 2026-04-28 05:40 | 26.31783 | 50.20626 | 22202 ft | 379 kts | 277° |
| 2026-04-28 05:40 | 26.32192 | 50.17717 | 22740 ft | 380 kts | 275° |
| 2026-04-28 05:41 | 26.32253 | 50.14784 | 23255 ft | 379 kts | 267° |
| 2026-04-28 05:41 | 26.32194 | 50.11833 | 23665 ft | 382 kts | 268° |
| 2026-04-28 05:41 | 26.32137 | 50.08865 | 24049 ft | 384 kts | 268° |
| 2026-04-28 05:41 | 26.32075 | 50.05879 | 24441 ft | 386 kts | 267° |
| 2026-04-28 05:42 | 26.32012 | 50.02881 | 24838 ft | 389 kts | 267° |
| 2026-04-28 05:42 | 26.31947 | 49.99859 | 25214 ft | 391 kts | 267° |
| 2026-04-28 05:42 | 26.31881 | 49.96820 | 25591 ft | 393 kts | 267° |
| 2026-04-28 05:42 | 26.31792 | 49.92767 | 26116 ft | 396 kts | 267° |
| 2026-04-28 05:43 | 26.31746 | 49.90689 | 26364 ft | 398 kts | 267° |
| 2026-04-28 05:43 | 26.31677 | 49.87600 | 26760 ft | 400 kts | 267° |
| 2026-04-28 05:43 | 26.31607 | 49.84491 | 27154 ft | 403 kts | 266° |
| 2026-04-28 05:43 | 26.31536 | 49.81366 | 27548 ft | 405 kts | 266° |
| 2026-04-28 05:44 | 26.31463 | 49.78217 | 27941 ft | 407 kts | 266° |
| 2026-04-28 05:44 | 26.31390 | 49.75052 | 28328 ft | 410 kts | 266° |
| 2026-04-28 05:44 | 26.31316 | 49.71873 | 28716 ft | 412 kts | 266° |
| 2026-04-28 05:44 | 26.31241 | 49.68714 | 29075 ft | 414 kts | 266° |
| 2026-04-28 05:45 | 26.31164 | 49.65463 | 29447 ft | 416 kts | 266° |
| 2026-04-28 05:45 | 26.31087 | 49.62272 | 29800 ft | 418 kts | 266° |
| 2026-04-28 05:45 | 26.31009 | 49.59037 | 30182 ft | 417 kts | 266° |
| 2026-04-28 05:45 | 26.30930 | 49.55827 | 30625 ft | 414 kts | 266° |
| 2026-04-28 05:46 | 26.30852 | 49.52633 | 31115 ft | 411 kts | 266° |
| 2026-04-28 05:46 | 26.30773 | 49.49463 | 31599 ft | 408 kts | 266° |
| 2026-04-28 05:46 | 26.30694 | 49.46317 | 32072 ft | 404 kts | 267° |
| 2026-04-28 05:46 | 26.30614 | 49.43200 | 32502 ft | 401 kts | 267° |
| 2026-04-28 05:47 | 26.30534 | 49.40105 | 32941 ft | 398 kts | 267° |
| 2026-04-28 05:47 | 26.30454 | 49.37035 | 33343 ft | 395 kts | 267° |
| 2026-04-28 05:47 | 26.30374 | 49.33984 | 33752 ft | 392 kts | 267° |
| 2026-04-28 05:47 | 26.30293 | 49.30955 | 34083 ft | 390 kts | 267° |
| 2026-04-28 05:48 | 26.30213 | 49.27932 | 34331 ft | 390 kts | 267° |
| 2026-04-28 05:48 | 26.30131 | 49.24917 | 34562 ft | 390 kts | 267° |
| 2026-04-28 05:48 | 26.30050 | 49.21889 | 34786 ft | 390 kts | 267° |
| 2026-04-28 05:48 | 26.29967 | 49.18860 | 35011 ft | 391 kts | 267° |
| 2026-04-28 05:49 | 26.29884 | 49.15839 | 35234 ft | 391 kts | 267° |
| 2026-04-28 05:49 | 26.29801 | 49.12816 | 35457 ft | 391 kts | 267° |
| 2026-04-28 05:49 | 26.29670 | 49.09787 | 35669 ft | 390 kts | 264° |
| 2026-04-28 05:49 | 26.29424 | 49.06775 | 35816 ft | 391 kts | 264° |
| 2026-04-28 05:50 | 26.28962 | 49.00749 | 35828 ft | 389 kts | 264° |
| 2026-04-28 05:50 | 26.28508 | 48.94741 | 35827 ft | 389 kts | 264° |
| 2026-04-28 05:51 | 26.28052 | 48.88728 | 35827 ft | 389 kts | 264° |
| 2026-04-28 05:51 | 26.27594 | 48.82719 | 35837 ft | 389 kts | 264° |
| 2026-04-28 05:52 | 26.27134 | 48.76709 | 35840 ft | 389 kts | 264° |
| 2026-04-28 05:52 | 26.26670 | 48.70699 | 35833 ft | 389 kts | 264° |
| 2026-04-28 05:53 | 26.26205 | 48.64690 | 35834 ft | 389 kts | 264° |
| 2026-04-28 05:53 | 26.25737 | 48.58683 | 35836 ft | 389 kts | 264° |
| 2026-04-28 05:54 | 26.25265 | 48.52683 | 35839 ft | 389 kts | 263° |
| 2026-04-28 05:54 | 26.24631 | 48.49773 | 35826 ft | 387 kts | 249° |
| 2026-04-28 05:54 | 26.23555 | 48.47025 | 35836 ft | 389 kts | 249° |
| 2026-04-28 05:55 | 26.21355 | 48.41513 | 35848 ft | 389 kts | 248° |
| 2026-04-28 05:55 | 26.19096 | 48.36043 | 35842 ft | 389 kts | 247° |
| 2026-04-28 05:56 | 26.16817 | 48.30584 | 35850 ft | 389 kts | 247° |
| 2026-04-28 05:56 | 26.14549 | 48.25163 | 35842 ft | 389 kts | 247° |
| 2026-04-28 05:57 | 26.12263 | 48.19709 | 35845 ft | 389 kts | 247° |
| 2026-04-28 05:57 | 26.10958 | 48.17072 | 35824 ft | 392 kts | 236° |
| 2026-04-28 05:57 | 26.09232 | 48.14719 | 35843 ft | 394 kts | 236° |
| 2026-04-28 05:58 | 26.05782 | 48.09968 | 35848 ft | 395 kts | 235° |
| 2026-04-28 05:58 | 26.02297 | 48.05253 | 35854 ft | 395 kts | 235° |
| 2026-04-28 05:59 | 25.98799 | 48.00543 | 35853 ft | 395 kts | 235° |
| 2026-04-28 05:59 | 25.95298 | 47.95835 | 35855 ft | 395 kts | 235° |
| 2026-04-28 06:00 | 25.91796 | 47.91131 | 35852 ft | 395 kts | 235° |
| 2026-04-28 06:00 | 25.88289 | 47.86426 | 35855 ft | 395 kts | 234° |
| 2026-04-28 06:01 | 25.84780 | 47.81721 | 35858 ft | 396 kts | 234° |
| 2026-04-28 06:01 | 25.81266 | 47.77017 | 35862 ft | 396 kts | 234° |
| 2026-04-28 06:02 | 25.77748 | 47.72309 | 35864 ft | 396 kts | 234° |
| 2026-04-28 06:02 | 25.74222 | 47.67598 | 35863 ft | 396 kts | 234° |
| 2026-04-28 06:03 | 25.70698 | 47.62892 | 35871 ft | 397 kts | 234° |
| 2026-04-28 06:03 | 25.67175 | 47.58180 | 35876 ft | 397 kts | 234° |
| 2026-04-28 06:04 | 25.63641 | 47.53459 | 35878 ft | 398 kts | 234° |
| 2026-04-28 06:04 | 25.60097 | 47.48740 | 35880 ft | 399 kts | 234° |
| 2026-04-28 06:05 | 25.56546 | 47.44017 | 35882 ft | 399 kts | 234° |
| 2026-04-28 06:05 | 25.52992 | 47.39298 | 35880 ft | 399 kts | 234° |
| 2026-04-28 06:06 | 25.49432 | 47.34573 | 35886 ft | 400 kts | 234° |
| 2026-04-28 06:06 | 25.45865 | 47.29844 | 35892 ft | 400 kts | 234° |
| 2026-04-28 06:07 | 25.42294 | 47.25114 | 35895 ft | 401 kts | 234° |
| 2026-04-28 06:07 | 25.38718 | 47.20384 | 35895 ft | 401 kts | 234° |
| 2026-04-28 06:08 | 25.35161 | 47.15683 | 35899 ft | 401 kts | 234° |
| 2026-04-28 06:08 | 25.31558 | 47.10926 | 35905 ft | 401 kts | 234° |
| 2026-04-28 06:09 | 25.27992 | 47.06223 | 35901 ft | 402 kts | 234° |
| 2026-04-28 06:09 | 25.24402 | 47.01492 | 35909 ft | 402 kts | 234° |
| 2026-04-28 06:10 | 25.20806 | 46.96759 | 35906 ft | 402 kts | 234° |
| 2026-04-28 06:10 | 25.17205 | 46.92024 | 35919 ft | 403 kts | 234° |
| 2026-04-28 06:11 | 25.13601 | 46.87289 | 35923 ft | 403 kts | 234° |
| 2026-04-28 06:11 | 25.09991 | 46.82552 | 35923 ft | 403 kts | 234° |
| 2026-04-28 06:12 | 25.06377 | 46.77815 | 35935 ft | 404 kts | 234° |
| 2026-04-28 06:12 | 25.02759 | 46.73076 | 35937 ft | 404 kts | 234° |
| 2026-04-28 06:13 | 24.99138 | 46.68336 | 35938 ft | 404 kts | 234° |
| 2026-04-28 06:13 | 24.95957 | 46.63288 | 35938 ft | 401 kts | 240° |
| 2026-04-28 06:14 | 24.92931 | 46.58117 | 35935 ft | 402 kts | 240° |
| 2026-04-28 06:14 | 24.89910 | 46.52934 | 35935 ft | 402 kts | 240° |
| 2026-04-28 06:15 | 24.86885 | 46.47746 | 35933 ft | 402 kts | 240° |
| 2026-04-28 06:15 | 24.83861 | 46.42565 | 35933 ft | 402 kts | 240° |
| 2026-04-28 06:16 | 24.80830 | 46.37378 | 35934 ft | 403 kts | 240° |
| 2026-04-28 06:16 | 24.77794 | 46.32186 | 35938 ft | 403 kts | 240° |
| 2026-04-28 06:17 | 24.74774 | 46.27029 | 35938 ft | 403 kts | 240° |
| 2026-04-28 06:18 | 24.70215 | 46.19255 | 35950 ft | 404 kts | 240° |
| 2026-04-28 06:18 | 24.67166 | 46.14061 | 35940 ft | 404 kts | 240° |
| 2026-04-28 06:19 | 24.64116 | 46.08872 | 35936 ft | 404 kts | 240° |
| 2026-04-28 06:19 | 24.61061 | 46.03680 | 35940 ft | 404 kts | 240° |
| 2026-04-28 06:20 | 24.58004 | 45.98491 | 35935 ft | 404 kts | 240° |
| 2026-04-28 06:20 | 24.54947 | 45.93306 | 35937 ft | 405 kts | 240° |
| 2026-04-28 06:21 | 24.51886 | 45.88121 | 35935 ft | 404 kts | 240° |
| 2026-04-28 06:21 | 24.48824 | 45.82938 | 35938 ft | 405 kts | 240° |
| 2026-04-28 06:22 | 24.45758 | 45.77746 | 35934 ft | 405 kts | 241° |
| 2026-04-28 06:22 | 24.43217 | 45.72270 | 35942 ft | 403 kts | 246° |
| 2026-04-28 06:23 | 24.40750 | 45.66741 | 35941 ft | 403 kts | 246° |
| 2026-04-28 06:23 | 24.38290 | 45.61211 | 35941 ft | 404 kts | 246° |
| 2026-04-28 06:24 | 24.35824 | 45.55672 | 35943 ft | 404 kts | 246° |
| 2026-04-28 06:24 | 24.33358 | 45.50138 | 35945 ft | 404 kts | 246° |
| 2026-04-28 06:25 | 24.30904 | 45.44639 | 35946 ft | 404 kts | 246° |
| 2026-04-28 06:25 | 24.28430 | 45.39102 | 35949 ft | 404 kts | 246° |
| 2026-04-28 06:26 | 24.25954 | 45.33565 | 35947 ft | 405 kts | 246° |
| 2026-04-28 06:26 | 24.23477 | 45.28035 | 35950 ft | 405 kts | 246° |
| 2026-04-28 06:27 | 24.20994 | 45.22497 | 35954 ft | 405 kts | 246° |
| 2026-04-28 06:27 | 24.18510 | 45.16964 | 35954 ft | 405 kts | 246° |
| 2026-04-28 06:28 | 24.16025 | 45.11435 | 35958 ft | 405 kts | 246° |
| 2026-04-28 06:28 | 24.13534 | 45.05904 | 35965 ft | 405 kts | 246° |
| 2026-04-28 06:29 | 24.11465 | 45.01315 | 35962 ft | 405 kts | 246° |
| 2026-04-28 06:29 | 24.08972 | 44.95791 | 35965 ft | 405 kts | 246° |
| 2026-04-28 06:30 | 24.06072 | 44.89373 | 35967 ft | 405 kts | 246° |
| 2026-04-28 06:30 | 24.03982 | 44.84753 | 35966 ft | 405 kts | 246° |
| 2026-04-28 06:31 | 24.01484 | 44.79238 | 35969 ft | 405 kts | 245° |
| 2026-04-28 06:31 | 23.98980 | 44.73717 | 35966 ft | 405 kts | 245° |
| 2026-04-28 06:32 | 23.96477 | 44.68202 | 35972 ft | 405 kts | 245° |
| 2026-04-28 06:32 | 23.93969 | 44.62685 | 35969 ft | 405 kts | 245° |
| 2026-04-28 06:33 | 23.92081 | 44.56944 | 35983 ft | 402 kts | 257° |
| 2026-04-28 06:33 | 23.90760 | 44.50992 | 35968 ft | 403 kts | 257° |
| 2026-04-28 06:34 | 23.89477 | 44.45025 | 35970 ft | 404 kts | 257° |
| 2026-04-28 06:34 | 23.88200 | 44.39047 | 35964 ft | 404 kts | 257° |
| 2026-04-28 06:35 | 23.86923 | 44.33077 | 35968 ft | 404 kts | 257° |
| 2026-04-28 06:35 | 23.85652 | 44.27143 | 35964 ft | 404 kts | 257° |
| 2026-04-28 06:36 | 23.84360 | 44.21126 | 35966 ft | 404 kts | 257° |
| 2026-04-28 06:36 | 23.83082 | 44.15186 | 35965 ft | 404 kts | 257° |
| 2026-04-28 06:37 | 23.81795 | 44.09214 | 35963 ft | 404 kts | 257° |
| 2026-04-28 06:37 | 23.80503 | 44.03232 | 35967 ft | 405 kts | 257° |
| 2026-04-28 06:38 | 23.79208 | 43.97250 | 35964 ft | 405 kts | 257° |
| 2026-04-28 06:38 | 23.77912 | 43.91269 | 35967 ft | 405 kts | 257° |
| 2026-04-28 06:39 | 23.76605 | 43.85291 | 35969 ft | 405 kts | 257° |
| 2026-04-28 06:39 | 23.75295 | 43.79310 | 35974 ft | 405 kts | 256° |
| 2026-04-28 06:40 | 23.73982 | 43.73332 | 35973 ft | 405 kts | 256° |
| 2026-04-28 06:40 | 23.72667 | 43.67355 | 35980 ft | 405 kts | 256° |
| 2026-04-28 06:41 | 23.71348 | 43.61371 | 35984 ft | 405 kts | 256° |
| 2026-04-28 06:41 | 23.70028 | 43.55394 | 35987 ft | 405 kts | 256° |
| 2026-04-28 06:42 | 23.68705 | 43.49415 | 35991 ft | 406 kts | 256° |
| 2026-04-28 06:42 | 23.67378 | 43.43432 | 35989 ft | 406 kts | 256° |
| 2026-04-28 06:43 | 23.66049 | 43.37446 | 35998 ft | 406 kts | 256° |
| 2026-04-28 06:43 | 23.64714 | 43.31451 | 36003 ft | 407 kts | 256° |
| 2026-04-28 06:44 | 23.63377 | 43.25457 | 36003 ft | 407 kts | 256° |
| 2026-04-28 06:44 | 23.62039 | 43.19469 | 36006 ft | 407 kts | 256° |
| 2026-04-28 06:45 | 23.60708 | 43.13520 | 36009 ft | 407 kts | 256° |
| 2026-04-28 06:45 | 23.59364 | 43.07531 | 36012 ft | 407 kts | 256° |
| 2026-04-28 06:46 | 23.58019 | 43.01544 | 36012 ft | 406 kts | 256° |
| 2026-04-28 06:46 | 23.56672 | 42.95562 | 36007 ft | 406 kts | 256° |
| 2026-04-28 06:47 | 23.55322 | 42.89576 | 36015 ft | 406 kts | 256° |
| 2026-04-28 06:47 | 23.53971 | 42.83598 | 36020 ft | 406 kts | 256° |
| 2026-04-28 06:48 | 23.52619 | 42.77621 | 36014 ft | 406 kts | 256° |
| 2026-04-28 06:48 | 23.51262 | 42.71643 | 36013 ft | 406 kts | 256° |
| 2026-04-28 06:49 | 23.49906 | 42.65676 | 36012 ft | 406 kts | 256° |
| 2026-04-28 06:49 | 23.48547 | 42.59705 | 36012 ft | 406 kts | 256° |
| 2026-04-28 06:50 | 23.47186 | 42.53737 | 36017 ft | 406 kts | 256° |
| 2026-04-28 06:50 | 23.45824 | 42.47774 | 36017 ft | 406 kts | 256° |
| 2026-04-28 06:51 | 23.44460 | 42.41814 | 36016 ft | 405 kts | 256° |
| 2026-04-28 06:51 | 23.43096 | 42.35866 | 36014 ft | 405 kts | 256° |
| 2026-04-28 06:52 | 23.41731 | 42.29923 | 36016 ft | 404 kts | 256° |
| 2026-04-28 06:52 | 23.40365 | 42.23989 | 36018 ft | 404 kts | 256° |
| 2026-04-28 06:53 | 23.38996 | 42.18051 | 36018 ft | 404 kts | 256° |
| 2026-04-28 06:53 | 23.37624 | 42.12116 | 36013 ft | 404 kts | 256° |
| 2026-04-28 06:54 | 23.36252 | 42.06185 | 36013 ft | 404 kts | 256° |
| 2026-04-28 06:54 | 23.34886 | 42.00297 | 36015 ft | 404 kts | 256° |
| 2026-04-28 06:55 | 23.33501 | 41.94334 | 36015 ft | 404 kts | 256° |
| 2026-04-28 06:55 | 23.32123 | 41.88410 | 36015 ft | 404 kts | 256° |
| 2026-04-28 06:56 | 23.30752 | 41.82529 | 36014 ft | 404 kts | 256° |
| 2026-04-28 06:56 | 23.29371 | 41.76614 | 36013 ft | 404 kts | 256° |
| 2026-04-28 06:57 | 23.27496 | 41.70888 | 36013 ft | 405 kts | 240° |
| 2026-04-28 06:57 | 23.24517 | 41.65651 | 36017 ft | 408 kts | 240° |
| 2026-04-28 06:58 | 23.21480 | 41.60437 | 36016 ft | 408 kts | 240° |
| 2026-04-28 06:58 | 23.18416 | 41.55244 | 36020 ft | 408 kts | 240° |
| 2026-04-28 06:59 | 23.15340 | 41.50045 | 36020 ft | 409 kts | 240° |
| 2026-04-28 06:59 | 23.12264 | 41.44852 | 36021 ft | 409 kts | 240° |
| 2026-04-28 07:00 | 23.09182 | 41.39653 | 36021 ft | 409 kts | 240° |
| 2026-04-28 07:00 | 23.06102 | 41.34466 | 36028 ft | 408 kts | 240° |
| 2026-04-28 07:01 | 23.03015 | 41.29269 | 36019 ft | 409 kts | 240° |
| 2026-04-28 07:01 | 22.99927 | 41.24077 | 36028 ft | 410 kts | 240° |
| 2026-04-28 07:02 | 22.96834 | 41.18881 | 36027 ft | 410 kts | 240° |
| 2026-04-28 07:02 | 22.93739 | 41.13688 | 36021 ft | 410 kts | 240° |
| 2026-04-28 07:03 | 22.90643 | 41.08498 | 36026 ft | 410 kts | 240° |
| 2026-04-28 07:03 | 22.87541 | 41.03302 | 36028 ft | 410 kts | 240° |
| 2026-04-28 07:04 | 22.84453 | 40.98140 | 36027 ft | 411 kts | 240° |
| 2026-04-28 07:04 | 22.81341 | 40.92942 | 36020 ft | 411 kts | 240° |
| 2026-04-28 07:05 | 22.78223 | 40.87741 | 36021 ft | 411 kts | 240° |
| 2026-04-28 07:05 | 22.75101 | 40.82538 | 36019 ft | 412 kts | 240° |
| 2026-04-28 07:06 | 22.71977 | 40.77336 | 36016 ft | 412 kts | 240° |
| 2026-04-28 07:06 | 22.68850 | 40.72136 | 36011 ft | 412 kts | 240° |
| 2026-04-28 07:07 | 22.65718 | 40.66932 | 36016 ft | 413 kts | 240° |
| 2026-04-28 07:07 | 22.62580 | 40.61723 | 36013 ft | 413 kts | 240° |
| 2026-04-28 07:08 | 22.59443 | 40.56521 | 35898 ft | 410 kts | 240° |
| 2026-04-28 07:08 | 22.57892 | 40.53948 | 35295 ft | 408 kts | 240° |
| 2026-04-28 07:08 | 22.56350 | 40.51395 | 34910 ft | 401 kts | 240° |
| 2026-04-28 07:08 | 22.54838 | 40.48892 | 34552 ft | 394 kts | 240° |
| 2026-04-28 07:09 | 22.53329 | 40.46394 | 34010 ft | 402 kts | 241° |
| 2026-04-28 07:09 | 22.51787 | 40.43844 | 33169 ft | 406 kts | 240° |
| 2026-04-28 07:09 | 22.50235 | 40.41281 | 32379 ft | 409 kts | 240° |
| 2026-04-28 07:09 | 22.48673 | 40.38701 | 31596 ft | 411 kts | 240° |
| 2026-04-28 07:10 | 22.47104 | 40.36109 | 30807 ft | 413 kts | 240° |
| 2026-04-28 07:10 | 22.45525 | 40.33503 | 29966 ft | 417 kts | 240° |
| 2026-04-28 07:10 | 22.43928 | 40.30869 | 29009 ft | 419 kts | 239° |
| 2026-04-28 07:10 | 22.42338 | 40.28247 | 28386 ft | 414 kts | 239° |
| 2026-04-28 07:11 | 22.40768 | 40.25660 | 27792 ft | 408 kts | 239° |
| 2026-04-28 07:11 | 22.39205 | 40.23084 | 27167 ft | 411 kts | 239° |
| 2026-04-28 07:11 | 22.37633 | 40.20496 | 26544 ft | 413 kts | 238° |
| 2026-04-28 07:11 | 22.36058 | 40.17903 | 25937 ft | 412 kts | 238° |
| 2026-04-28 07:12 | 22.34510 | 40.15357 | 25347 ft | 409 kts | 238° |
| 2026-04-28 07:12 | 22.32958 | 40.12805 | 24742 ft | 405 kts | 238° |
| 2026-04-28 07:12 | 22.31398 | 40.10241 | 24137 ft | 402 kts | 238° |
| 2026-04-28 07:12 | 22.29883 | 40.07753 | 23550 ft | 400 kts | 237° |
| 2026-04-28 07:13 | 22.28360 | 40.05248 | 22855 ft | 398 kts | 237° |
| 2026-04-28 07:13 | 22.26836 | 40.02747 | 22530 ft | 388 kts | 237° |
| 2026-04-28 07:13 | 22.25391 | 40.00379 | 22276 ft | 377 kts | 237° |
| 2026-04-28 07:13 | 22.23954 | 39.98024 | 22086 ft | 365 kts | 237° |
| 2026-04-28 07:14 | 22.22576 | 39.95767 | 21889 ft | 355 kts | 237° |
| 2026-04-28 07:14 | 22.21235 | 39.93570 | 21730 ft | 345 kts | 237° |
| 2026-04-28 07:14 | 22.19934 | 39.91440 | 21558 ft | 335 kts | 237° |
| 2026-04-28 07:14 | 22.18670 | 39.89372 | 21401 ft | 326 kts | 237° |
| 2026-04-28 07:15 | 22.17441 | 39.87361 | 21225 ft | 318 kts | 237° |
| 2026-04-28 07:15 | 22.16243 | 39.85401 | 20866 ft | 316 kts | 237° |
| 2026-04-28 07:15 | 22.15040 | 39.83435 | 20552 ft | 312 kts | 237° |
| 2026-04-28 07:15 | 22.13835 | 39.81465 | 20240 ft | 309 kts | 237° |
| 2026-04-28 07:16 | 22.13051 | 39.80184 | 20023 ft | 308 kts | 238° |
| 2026-04-28 07:16 | 22.11498 | 39.77649 | 19608 ft | 304 kts | 237° |
| 2026-04-28 07:16 | 22.10715 | 39.76370 | 19397 ft | 302 kts | 238° |
| 2026-04-28 07:16 | 22.09185 | 39.73873 | 18976 ft | 300 kts | 237° |
| 2026-04-28 07:17 | 22.08026 | 39.71983 | 18666 ft | 305 kts | 237° |
| 2026-04-28 07:17 | 22.07230 | 39.70685 | 18443 ft | 308 kts | 238° |
| 2026-04-28 07:17 | 22.06041 | 39.68745 | 18104 ft | 312 kts | 237° |
| 2026-04-28 07:17 | 22.04843 | 39.66795 | 17747 ft | 312 kts | 237° |
| 2026-04-28 07:18 | 22.03650 | 39.64851 | 17416 ft | 309 kts | 237° |
| 2026-04-28 07:18 | 22.02469 | 39.62928 | 17097 ft | 306 kts | 237° |
| 2026-04-28 07:18 | 22.01302 | 39.61027 | 16781 ft | 303 kts | 237° |
| 2026-04-28 07:18 | 22.00159 | 39.59168 | 16473 ft | 300 kts | 237° |
| 2026-04-28 07:19 | 21.99014 | 39.57305 | 16166 ft | 297 kts | 237° |
| 2026-04-28 07:19 | 21.97880 | 39.55461 | 15864 ft | 294 kts | 237° |
| 2026-04-28 07:19 | 21.96756 | 39.53633 | 15560 ft | 291 kts | 237° |
| 2026-04-28 07:19 | 21.95643 | 39.51825 | 15261 ft | 288 kts | 236° |
| 2026-04-28 07:20 | 21.94543 | 39.50031 | 14980 ft | 285 kts | 237° |
| 2026-04-28 07:20 | 21.93646 | 39.48104 | 14552 ft | 288 kts | 244° |
| 2026-04-28 07:20 | 21.92806 | 39.46152 | 14224 ft | 287 kts | 243° |
| 2026-04-28 07:20 | 21.91954 | 39.44211 | 13908 ft | 286 kts | 243° |
| 2026-04-28 07:21 | 21.91100 | 39.42285 | 13539 ft | 285 kts | 243° |
| 2026-04-28 07:21 | 21.90241 | 39.40362 | 13103 ft | 285 kts | 243° |
| 2026-04-28 07:21 | 21.89377 | 39.38438 | 12702 ft | 285 kts | 243° |
| 2026-04-28 07:22 | 21.87662 | 39.34630 | 11864 ft | 275 kts | 243° |
| 2026-04-28 07:22 | 21.86838 | 39.32802 | 11485 ft | 268 kts | 243° |
| 2026-04-28 07:22 | 21.86033 | 39.31018 | 11099 ft | 262 kts | 243° |
| 2026-04-28 07:22 | 21.85249 | 39.29277 | 10728 ft | 256 kts | 243° |
| 2026-04-28 07:23 | 21.84478 | 39.27569 | 10360 ft | 251 kts | 243° |
| 2026-04-28 07:23 | 21.83715 | 39.25882 | 9985 ft | 247 kts | 244° |
| 2026-04-28 07:23 | 21.82966 | 39.24273 | 9612 ft | 241 kts | 238° |
| 2026-04-28 07:23 | 21.81791 | 39.23030 | 9157 ft | 239 kts | 208° |
| 2026-04-28 07:24 | 21.80187 | 39.22639 | 8756 ft | 239 kts | 179° |
| 2026-04-28 07:24 | 21.78589 | 39.23073 | 8457 ft | 237 kts | 162° |
| 2026-04-28 07:24 | 21.77030 | 39.23677 | 8143 ft | 238 kts | 164° |
| 2026-04-28 07:24 | 21.75466 | 39.24276 | 7797 ft | 240 kts | 163° |
| 2026-04-28 07:25 | 21.73888 | 39.24886 | 7461 ft | 242 kts | 163° |
| 2026-04-28 07:25 | 21.72292 | 39.25508 | 7099 ft | 245 kts | 162° |
| 2026-04-28 07:25 | 21.70673 | 39.26146 | 6715 ft | 250 kts | 162° |
| 2026-04-28 07:25 | 21.69029 | 39.26796 | 6347 ft | 253 kts | 162° |
| 2026-04-28 07:26 | 21.67374 | 39.27449 | 5986 ft | 253 kts | 161° |
| 2026-04-28 07:26 | 21.65723 | 39.28103 | 5648 ft | 253 kts | 161° |
| 2026-04-28 07:26 | 21.64071 | 39.28754 | 5292 ft | 254 kts | 161° |
| 2026-04-28 07:26 | 21.62407 | 39.29409 | 4922 ft | 256 kts | 160° |
| 2026-04-28 07:27 | 21.60728 | 39.30068 | 4535 ft | 258 kts | 160° |
| 2026-04-28 07:27 | 21.59032 | 39.30733 | 4180 ft | 259 kts | 160° |
| 2026-04-28 07:27 | 21.57334 | 39.31398 | 3832 ft | 260 kts | 159° |
| 2026-04-28 07:27 | 21.55623 | 39.32068 | 3485 ft | 263 kts | 159° |
| 2026-04-28 07:28 | 21.53900 | 39.32744 | 3130 ft | 265 kts | 159° |
| 2026-04-28 07:28 | 21.52176 | 39.33419 | 3000 ft | 260 kts | 158° |
| 2026-04-28 07:28 | 21.50514 | 39.34070 | 2973 ft | 247 kts | 159° |
| 2026-04-28 07:28 | 21.48916 | 39.34693 | 3001 ft | 244 kts | 159° |
| 2026-04-28 07:29 | 21.47352 | 39.35305 | 3049 ft | 232 kts | 161° |
| 2026-04-28 07:29 | 21.45803 | 39.35475 | 2933 ft | 222 kts | 191° |
| 2026-04-28 07:29 | 21.44447 | 39.34825 | 2958 ft | 212 kts | 223° |
| 2026-04-28 07:29 | 21.43537 | 39.33644 | 3051 ft | 200 kts | 248° |
| 2026-04-28 07:30 | 21.43125 | 39.32260 | 3033 ft | 192 kts | 271° |
| 2026-04-28 07:30 | 21.43412 | 39.30953 | 2911 ft | 174 kts | 308° |
| 2026-04-28 07:30 | 21.44179 | 39.30015 | 3074 ft | 168 kts | 319° |
| 2026-04-28 07:30 | 21.45041 | 39.29157 | 3129 ft | 170 kts | 321° |
| 2026-04-28 07:31 | 21.45905 | 39.28301 | 3049 ft | 168 kts | 320° |
| 2026-04-28 07:31 | 21.46773 | 39.27456 | 2985 ft | 168 kts | 324° |
| 2026-04-28 07:31 | 21.47714 | 39.26713 | 2790 ft | 167 kts | 329° |
| 2026-04-28 07:31 | 21.48675 | 39.26037 | 2550 ft | 164 kts | 331° |
| 2026-04-28 07:32 | 21.49644 | 39.25417 | 2357 ft | 161 kts | 333° |
| 2026-04-28 07:32 | 21.50626 | 39.24840 | 2174 ft | 160 kts | 335° |
| 2026-04-28 07:32 | 21.51568 | 39.24218 | 2104 ft | 158 kts | 330° |
| 2026-04-28 07:32 | 21.52532 | 39.23685 | 2147 ft | 158 kts | 336° |
| 2026-04-28 07:33 | 21.53559 | 39.23230 | 2163 ft | 158 kts | 339° |
| 2026-04-28 07:33 | 21.54568 | 39.22823 | 2108 ft | 156 kts | 340° |
| 2026-04-28 07:33 | 21.55590 | 39.22422 | 2032 ft | 158 kts | 340° |
| 2026-04-28 07:33 | 21.56624 | 39.22011 | 2035 ft | 160 kts | 340° |
| 2026-04-28 07:34 | 21.57630 | 39.21613 | 1859 ft | 145 kts | 340° |
| 2026-04-28 07:34 | 21.58554 | 39.21251 | 1732 ft | 138 kts | 340° |
| 2026-04-28 07:34 | 21.59449 | 39.20907 | 1485 ft | 136 kts | 341° |
| 2026-04-28 07:34 | 21.60333 | 39.20547 | 1274 ft | 137 kts | 340° |
| 2026-04-28 07:35 | 21.61220 | 39.20175 | 1098 ft | 138 kts | 341° |
| 2026-04-28 07:35 | 21.62145 | 39.19834 | 1014 ft | 142 kts | 343° |
| 2026-04-28 07:35 | 21.63074 | 39.19474 | 826 ft | 143 kts | 342° |
| 2026-04-28 07:35 | 21.64006 | 39.19081 | 644 ft | 144 kts | 341° |
| 2026-04-28 07:36 | 21.64937 | 39.18701 | 476 ft | 142 kts | 344° |
| 2026-04-28 07:36 | 21.65854 | 39.18324 | 298 ft | 140 kts | 343° |
| 2026-04-28 07:36 | 21.66768 | 39.17989 | 111 ft | 138 kts | 344° |
| 2026-04-28 07:36 | 21.67625 | 39.17693 | 52 ft | 112 kts | 339° |
| 2026-04-28 07:37 | 21.68132 | 39.17478 | 51 ft | 52 kts | 336° |
| 2026-04-28 07:37 | 21.68334 | 39.17323 | 49 ft | 33 kts | 307° |
| 2026-04-28 07:37 | 21.68401 | 39.17228 | 49 ft | 8 kts | 306° |
| 2026-04-28 07:37 | 21.68410 | 39.17215 | 49 ft | 0 kts | 304° |
| 2026-04-28 07:38 | 21.68411 | 39.17213 | 49 ft | 1 kts | 304° |
| 2026-04-28 07:39 | 21.68426 | 39.17190 | 49 ft | 6 kts | 305° |
| 2026-04-28 07:39 | 21.68443 | 39.17164 | 49 ft | 3 kts | 306° |
| 2026-04-28 07:39 | 21.68468 | 39.17127 | 49 ft | 9 kts | 306° |
| 2026-04-28 07:39 | 21.68539 | 39.17071 | 49 ft | 17 kts | 330° |
| 2026-04-28 07:40 | 21.68617 | 39.17038 | 48 ft | 11 kts | 345° |
| 2026-04-28 07:40 | 21.68695 | 39.17011 | 48 ft | 12 kts | 340° |
| 2026-04-28 07:40 | 21.68776 | 39.16976 | 46 ft | 13 kts | 339° |
| 2026-04-28 07:40 | 21.68860 | 39.16943 | 47 ft | 13 kts | 340° |
| 2026-04-28 07:41 | 21.68947 | 39.16909 | 47 ft | 14 kts | 340° |
| 2026-04-28 07:41 | 21.69036 | 39.16874 | 46 ft | 14 kts | 341° |
| 2026-04-28 07:41 | 21.69128 | 39.16839 | 45 ft | 14 kts | 340° |
| 2026-04-28 07:41 | 21.69223 | 39.16803 | 45 ft | 15 kts | 340° |
| 2026-04-28 07:42 | 21.69320 | 39.16765 | 44 ft | 15 kts | 334° |
| 2026-04-28 07:42 | 21.69339 | 39.16671 | 44 ft | 15 kts | 249° |
| 2026-04-28 07:42 | 21.69304 | 39.16565 | 41 ft | 15 kts | 250° |
| 2026-04-28 07:42 | 21.69268 | 39.16459 | 43 ft | 16 kts | 250° |
| 2026-04-28 07:43 | 21.69230 | 39.16345 | 39 ft | 17 kts | 250° |
| 2026-04-28 07:43 | 21.69188 | 39.16225 | 37 ft | 18 kts | 249° |
| 2026-04-28 07:43 | 21.69148 | 39.16110 | 38 ft | 16 kts | 249° |
| 2026-04-28 07:43 | 21.69107 | 39.15993 | 36 ft | 17 kts | 249° |
| 2026-04-28 07:44 | 21.69065 | 39.15875 | 35 ft | 8 kts | 249° |
| 2026-04-28 07:44 | 21.69043 | 39.15813 | 34 ft | 9 kts | 249° |
| 2026-04-28 07:44 | 21.69019 | 39.15747 | 34 ft | 10 kts | 249° |
| 2026-04-28 07:44 | 21.69004 | 39.15704 | 34 ft | 6 kts | 249° |
| 2026-04-28 07:45 | 21.68988 | 39.15660 | 33 ft | 5 kts | 249° |
| 2026-04-28 07:45 | 21.68986 | 39.15654 | 33 ft | 2 kts | 249° |
| 2026-04-28 07:45 | 21.68982 | 39.15644 | 33 ft | 3 kts | 249° |
| 2026-04-28 07:45 | 21.68975 | 39.15622 | 33 ft | 3 kts | 250° |
| 2026-04-28 07:46 | 21.68967 | 39.15599 | 33 ft | 3 kts | 250° |
| 2026-04-28 07:46 | 21.68958 | 39.15570 | 33 ft | 5 kts | 250° |
| 2026-04-28 07:46 | 21.68941 | 39.15523 | 33 ft | 8 kts | 250° |
| 2026-04-28 07:46 | 21.68921 | 39.15460 | 33 ft | 10 kts | 251° |
| 2026-04-28 07:47 | 21.68899 | 39.15392 | 32 ft | 9 kts | 250° |
| 2026-04-28 07:47 | 21.68879 | 39.15333 | 32 ft | 8 kts | 250° |
| 2026-04-28 07:47 | 21.68862 | 39.15283 | 32 ft | 6 kts | 250° |
| 2026-04-28 07:47 | 21.68849 | 39.15246 | 32 ft | 4 kts | 249° |
| 2026-04-28 07:48 | 21.68840 | 39.15222 | 32 ft | 3 kts | 248° |
| 2026-04-28 07:48 | 21.68835 | 39.15207 | 33 ft | 3 kts | 248° |
| 2026-04-28 07:48 | 21.68824 | 39.15178 | 33 ft | 5 kts | 248° |
| 2026-04-28 07:48 | 21.68807 | 39.15132 | 33 ft | 8 kts | 249° |
| 2026-04-28 07:49 | 21.68784 | 39.15068 | 33 ft | 11 kts | 250° |
| 2026-04-28 07:49 | 21.68756 | 39.14984 | 33 ft | 13 kts | 251° |
| 2026-04-28 07:49 | 21.68723 | 39.14882 | 33 ft | 16 kts | 251° |
| 2026-04-28 07:49 | 21.68684 | 39.14762 | 32 ft | 18 kts | 250° |
| 2026-04-28 07:50 | 21.68641 | 39.14633 | 32 ft | 18 kts | 250° |
| 2026-04-28 07:50 | 21.68598 | 39.14510 | 31 ft | 17 kts | 249° |
| 2026-04-28 07:50 | 21.68556 | 39.14395 | 30 ft | 16 kts | 249° |
| 2026-04-28 07:50 | 21.68516 | 39.14285 | 29 ft | 15 kts | 248° |
| 2026-04-28 07:51 | 21.68481 | 39.14180 | 29 ft | 14 kts | 252° |
| 2026-04-28 07:51 | 21.68450 | 39.14081 | 28 ft | 13 kts | 250° |
| 2026-04-28 07:51 | 21.68418 | 39.13992 | 27 ft | 12 kts | 249° |
| 2026-04-28 07:51 | 21.68389 | 39.13911 | 27 ft | 11 kts | 249° |
| 2026-04-28 07:52 | 21.68363 | 39.13837 | 28 ft | 10 kts | 245° |
| 2026-04-28 07:52 | 21.68318 | 39.13790 | 27 ft | 9 kts | 199° |
| 2026-04-28 07:52 | 21.68264 | 39.13795 | 27 ft | 7 kts | 163° |
| 2026-04-28 07:52 | 21.68220 | 39.13810 | 29 ft | 6 kts | 160° |
| 2026-04-28 07:53 | 21.68181 | 39.13827 | 26 ft | 7 kts | 159° |
| 2026-04-28 07:53 | 21.68134 | 39.13846 | 26 ft | 8 kts | 158° |
| 2026-04-28 07:53 | 21.68084 | 39.13868 | 26 ft | 8 kts | 160° |
| 2026-04-28 07:53 | 21.68031 | 39.13888 | 27 ft | 8 kts | 161° |
| 2026-04-28 07:54 | 21.67972 | 39.13910 | 26 ft | 10 kts | 160° |
| 2026-04-28 07:54 | 21.67904 | 39.13938 | 26 ft | 11 kts | 150° |
| 2026-04-28 07:54 | 21.67884 | 39.14019 | 27 ft | 13 kts | 74° |
| 2026-04-28 07:54 | 21.67916 | 39.14114 | 27 ft | 14 kts | 70° |
| 2026-04-28 07:55 | 21.67948 | 39.14206 | 28 ft | 13 kts | 69° |
| 2026-04-28 07:55 | 21.67978 | 39.14289 | 28 ft | 11 kts | 69° |
| 2026-04-28 07:55 | 21.68004 | 39.14362 | 29 ft | 10 kts | 69° |
| 2026-04-28 07:55 | 21.68027 | 39.14426 | 30 ft | 8 kts | 69° |
| 2026-04-28 07:56 | 21.68042 | 39.14477 | 30 ft | 6 kts | 77° |
| 2026-04-28 07:56 | 21.68045 | 39.14514 | 30 ft | 4 kts | 107° |
| 2026-04-28 07:56 | 21.68037 | 39.14524 | 31 ft | 1 kts | 142° |
| 2026-04-28 07:56 | 21.68033 | 39.14525 | 31 ft | 1 kts | 161° |
| 2026-04-28 07:57 | 21.68023 | 39.14525 | 30 ft | 2 kts | 188° |
| 2026-04-28 07:57 | 21.68014 | 39.14516 | 30 ft | 1 kts | 238° |
| 2026-04-28 07:57 | 21.68009 | 39.14495 | 30 ft | 5 kts | 258° |
| 2026-04-28 07:57 | 21.68003 | 39.14467 | 30 ft | 3 kts | 252° |
| 2026-04-28 07:58 | 21.67997 | 39.14450 | 30 ft | 2 kts | 249° |
| 2026-04-28 07:58 | 21.67995 | 39.14445 | 30 ft | 0 kts | 248° |
| 2026-04-28 07:58 | 21.67994 | 39.14443 | 30 ft | 0 kts | 248° |